Time;durP1;ratioP1;P1;durP2;ratioP2;P2;SDS_P1;SDS_P2;PMS_P1;PMS_P2;Temp;Humidity;BMP_temperature;BMP_pressure;BME280_temperature;BME280_humidity;BME280_pressure;Samples;Min_cycle;Max_cycle;Signal;HPM_P1;HPM_P2
2024/01/03 00:01:49;;;;;;;3.00;0.70;;;;;;;-19.83;50.76;99777.28;5048903;28;20491;-66
2024/01/03 00:04:25;;;;;;;0.80;0.60;;;;;;;-19.77;51.40;99773.00;5035665;28;20575;-65
2024/01/03 00:06:51;;;;;;;0.67;0.30;;;;;;;-20.17;51.28;99706.69;5032384;28;20549;-66
2024/01/03 00:09:20;;;;;;;3.33;1.13;;;;;;;-19.83;50.96;99786.28;5047009;28;20144;-65
2024/01/03 00:11:46;;;;;;;1.43;0.57;;;;;;;-19.95;50.74;99780.91;5066386;28;20043;-65
2024/01/03 00:14:31;;;;;;;2.47;0.83;;;;;;;-19.89;51.13;99782.50;5066579;28;20044;-67
2024/01/03 00:17:02;;;;;;;2.40;0.80;;;;;;;-19.97;50.27;99774.94;5063027;28;20494;-67
2024/01/03 00:19:29;;;;;;;2.87;1.03;;;;;;;-20.24;51.27;99732.41;5047783;28;20087;-65
2024/01/03 00:21:55;;;;;;;1.50;0.93;;;;;;;-19.95;50.93;99781.81;5049367;28;20064;-66
2024/01/03 00:24:24;;;;;;;1.43;0.40;;;;;;;-20.15;50.64;99752.34;5034117;28;20041;-67
2024/01/03 00:26:53;;;;;;;5.80;1.10;;;;;;;-20.58;51.01;99676.69;5064458;28;20036;-67
2024/01/03 00:29:22;;;;;;;3.63;0.73;;;;;;;-19.99;51.19;99774.75;5035137;28;20094;-66
2024/01/03 00:31:49;;;;;;;2.40;1.10;;;;;;;-20.20;50.87;99733.63;5066744;28;20048;-67
2024/01/03 00:34:21;;;;;;;1.47;0.70;;;;;;;-20.07;49.99;99783.81;5034438;28;20072;-66
2024/01/03 00:36:54;;;;;;;0.57;0.33;;;;;;;-20.23;50.56;99760.53;5048330;28;20044;-67
2024/01/03 00:39:25;;;;;;;0.70;0.60;;;;;;;-20.36;50.69;99736.88;5046236;28;20483;-67
2024/01/03 00:41:52;;;;;;;1.23;0.80;;;;;;;-20.39;50.96;99756.34;5048056;28;20058;-67
2024/01/03 00:44:18;;;;;;;1.07;0.23;;;;;;;-20.60;49.76;99725.13;5045338;28;20037;-66
2024/01/03 00:46:47;;;;;;;0.80;0.60;;;;;;;-20.52;50.52;99741.75;5029918;28;20067;-66
2024/01/03 00:49:13;;;;;;;3.07;1.33;;;;;;;-20.29;50.49;99767.28;5013064;28;20043;-66
2024/01/03 00:51:39;;;;;;;0.77;0.77;;;;;;;-20.63;50.29;99725.66;5046099;28;20048;-67
2024/01/03 00:54:05;;;;;;;3.50;1.03;;;;;;;-20.45;51.07;99765.59;5045363;28;20041;-66
2024/01/03 00:56:31;;;;;;;1.53;0.47;;;;;;;-20.29;51.52;99754.91;5046795;28;20067;-66
2024/01/03 00:58:57;;;;;;;0.67;0.27;;;;;;;-20.49;50.22;99736.22;5064107;28;20499;-66
2024/01/03 01:01:24;;;;;;;2.17;0.27;;;;;;;-20.47;50.95;99739.75;5063893;28;20048;-67
2024/01/03 01:03:50;;;;;;;2.47;0.60;;;;;;;-20.35;50.89;99751.03;5063446;28;20595;-67
2024/01/03 01:06:16;;;;;;;1.70;0.80;;;;;;;-20.31;51.46;99749.78;5046704;28;20599;-65
2024/01/03 01:08:42;;;;;;;2.40;0.53;;;;;;;-20.37;50.42;99749.97;5047705;28;20044;-66
2024/01/03 01:11:08;;;;;;;1.53;0.80;;;;;;;-20.53;50.82;99725.13;5049678;28;20047;-65
2024/01/03 01:13:34;;;;;;;0.87;0.60;;;;;;;-20.64;50.41;99718.97;5047486;28;20037;-65
2024/01/03 01:16:00;;;;;;;2.77;0.83;;;;;;;-20.57;51.56;99717.16;5064707;28;20041;-64
2024/01/03 01:18:27;;;;;;;2.23;0.87;;;;;;;-20.49;51.63;99713.97;5033833;28;20514;-65
2024/01/03 01:20:53;;;;;;;0.43;0.37;;;;;;;-20.52;51.74;99698.75;5048811;28;20045;-64
2024/01/03 01:23:19;;;;;;;1.47;0.60;;;;;;;-20.53;50.72;99705.31;5045287;28;20036;-66
2024/01/03 01:25:45;;;;;;;0.63;0.40;;;;;;;-20.96;50.60;99639.56;5047038;28;20500;-65
2024/01/03 01:28:11;;;;;;;3.60;1.10;;;;;;;-20.64;50.66;99708.19;5045607;28;20105;-65
2024/01/03 01:30:38;;;;;;;4.00;1.03;;;;;;;-20.29;51.13;99754.91;5032736;28;20043;-65
2024/01/03 01:33:04;;;;;;;2.10;0.87;;;;;;;-20.22;51.53;99755.75;5033195;28;20063;-66
2024/01/03 01:35:30;;;;;;;0.70;0.70;;;;;;;-20.26;50.96;99742.88;5033452;28;20040;-66
2024/01/03 01:37:56;;;;;;;1.83;0.67;;;;;;;-20.08;50.71;99762.22;5064876;28;20048;-64
2024/01/03 01:40:22;;;;;;;1.00;0.67;;;;;;;-21.13;50.19;99636.81;5030985;28;20040;-65
2024/01/03 01:42:48;;;;;;;2.40;1.03;;;;;;;-20.36;51.68;99766.59;5044614;28;20064;-65
2024/01/03 01:45:14;;;;;;;2.67;0.70;;;;;;;-20.41;50.91;99767.69;5042269;28;20877;-64
2024/01/03 01:47:42;;;;;;;1.40;1.23;;;;;;;-20.73;51.18;99712.09;5049682;28;20120;-65
2024/01/03 01:50:09;;;;;;;1.33;0.60;;;;;;;-20.50;50.93;99762.56;5062332;28;20075;-66
2024/01/03 01:52:36;;;;;;;0.50;0.50;;;;;;;-20.58;51.11;99745.09;5048766;28;20367;-67
2024/01/03 01:55:03;;;;;;;0.90;0.70;;;;;;;-20.49;51.30;99768.41;5047051;28;20516;-64
2024/01/03 01:57:32;;;;;;;0.80;0.50;;;;;;;-20.82;50.76;99717.81;5050337;28;20132;-64
2024/01/03 02:00:00;;;;;;;2.47;1.07;;;;;;;-20.73;50.81;99736.81;5063481;28;20044;-65
2024/01/03 02:02:26;;;;;;;1.83;1.37;;;;;;;-20.46;51.18;99764.69;5047662;28;20045;-64
2024/01/03 02:04:53;;;;;;;2.97;1.30;;;;;;;-20.69;51.07;99721.63;5066022;28;20047;-64
2024/01/03 02:07:19;;;;;;;2.30;0.87;;;;;;;-20.48;51.81;99735.53;5044069;28;20044;-65
2024/01/03 02:09:47;;;;;;;1.03;0.50;;;;;;;-20.16;51.39;99767.91;5044999;28;20037;-64
2024/01/03 02:12:13;;;;;;;2.00;1.23;;;;;;;-20.34;50.95;99725.56;5049053;28;20522;-65
2024/01/03 02:14:40;;;;;;;1.80;1.40;;;;;;;-20.37;50.60;99744.16;5045079;28;20482;-63
2024/01/03 02:17:06;;;;;;;4.00;0.83;;;;;;;-20.30;51.41;99763.94;5044428;28;20465;-63
2024/01/03 02:19:33;;;;;;;1.10;0.60;;;;;;;-20.48;50.90;99757.81;5016888;28;20131;-65
2024/01/03 02:22:00;;;;;;;4.27;1.13;;;;;;;-20.67;50.68;99745.84;5062972;28;20131;-64
2024/01/03 02:24:26;;;;;;;3.37;1.30;;;;;;;-20.72;50.83;99724.66;5032843;28;20402;-64
2024/01/03 02:26:52;;;;;;;3.17;1.40;;;;;;;-20.77;51.22;99723.28;5044752;28;20518;-65
2024/01/03 02:29:18;;;;;;;2.77;1.30;;;;;;;-20.79;50.64;99734.59;5061458;28;20033;-64
2024/01/03 02:31:44;;;;;;;3.63;1.03;;;;;;;-20.80;51.02;99725.41;5045565;28;20495;-64
2024/01/03 02:34:10;;;;;;;0.63;0.60;;;;;;;-20.58;50.21;99772.31;5043912;28;20041;-65
2024/01/03 02:36:36;;;;;;;3.60;1.70;;;;;;;-20.74;50.52;99740.03;5032963;28;20609;-66
2024/01/03 02:39:02;;;;;;;5.27;1.20;;;;;;;-20.55;50.99;99761.19;5061138;28;20044;-65
2024/01/03 02:41:28;;;;;;;0.47;0.47;;;;;;;-20.46;51.87;99767.16;5046572;28;20067;-65
2024/01/03 02:43:54;;;;;;;1.87;0.97;;;;;;;-21.38;50.80;99614.28;5015070;28;20044;-65
2024/01/03 02:46:20;;;;;;;2.63;0.50;;;;;;;-20.70;50.59;99737.19;5043803;28;20058;-66
2024/01/03 02:48:46;;;;;;;0.70;0.47;;;;;;;-20.58;51.79;99743.53;5044306;28;20136;-65
2024/01/03 02:51:19;;;;;;;7.50;0.60;;;;;;;-20.77;50.49;99721.69;5063483;28;20044;-66
2024/01/03 02:53:45;;;;;;;1.47;0.80;;;;;;;-20.50;51.49;99765.03;5063084;28;20043;-64
2024/01/03 02:56:15;;;;;;;0.73;0.43;;;;;;;-20.65;51.25;99744.44;5045926;28;20064;-65
2024/01/03 02:58:41;;;;;;;6.73;0.67;;;;;;;-20.55;50.80;99767.72;5047335;28;20040;-64
2024/01/03 03:01:07;;;;;;;0.70;0.60;;;;;;;-20.68;51.48;99743.19;5032225;28;20037;-64
2024/01/03 03:03:33;;;;;;;6.27;0.83;;;;;;;-20.52;50.26;99770.53;5064119;28;20125;-64
2024/01/03 03:06:00;;;;;;;6.07;0.70;;;;;;;-20.61;50.96;99749.00;5032194;28;20048;-65
2024/01/03 03:08:26;;;;;;;1.13;0.70;;;;;;;-20.71;50.95;99740.38;5045194;28;20052;-64
2024/01/03 03:10:52;;;;;;;1.73;0.90;;;;;;;-20.53;50.73;99781.16;5060899;28;20140;-65
2024/01/03 03:13:18;;;;;;;1.03;0.60;;;;;;;-20.65;51.45;99746.00;5062784;28;20596;-65
2024/01/03 03:15:44;;;;;;;0.37;0.30;;;;;;;-20.52;51.31;99768.97;5032567;28;20048;-65
2024/01/03 03:18:10;;;;;;;1.63;1.13;;;;;;;-20.68;50.55;99766.34;5047506;28;20047;-63
2024/01/03 03:20:36;;;;;;;1.20;0.70;;;;;;;-20.67;50.75;99778.03;5046790;28;20048;-65
2024/01/03 03:23:02;;;;;;;0.97;0.37;;;;;;;-20.75;50.69;99782.84;5049247;28;20051;-65
2024/01/03 03:25:31;;;;;;;1.33;0.70;;;;;;;-20.84;50.95;99768.72;5066766;28;20048;-65
2024/01/03 03:27:57;;;;;;;1.57;0.33;;;;;;;-20.66;51.39;99782.25;5067372;28;20266;-65
2024/01/03 03:30:23;;;;;;;3.03;0.67;;;;;;;-20.63;51.40;99776.78;5049825;28;20080;-64
2024/01/03 03:32:49;;;;;;;0.97;0.87;;;;;;;-20.64;50.94;99779.94;5047138;28;20048;-64
2024/01/03 03:35:15;;;;;;;4.23;1.40;;;;;;;-20.82;50.97;99742.56;5019457;28;20063;-64
2024/01/03 03:37:41;;;;;;;4.53;1.27;;;;;;;-20.50;51.71;99799.69;5065860;28;20044;-65
2024/01/03 03:40:08;;;;;;;0.47;0.47;;;;;;;-20.90;51.02;99728.44;5048343;28;20036;-65
2024/01/03 03:42:34;;;;;;;1.50;0.93;;;;;;;-20.81;50.08;99761.66;5063711;28;20037;-65
2024/01/03 03:45:00;;;;;;;0.87;0.73;;;;;;;-20.86;51.84;99765.19;5067804;28;20043;-65
2024/01/03 03:47:26;;;;;;;1.57;0.70;;;;;;;-21.21;51.73;99695.31;5066337;28;20040;-65
2024/01/03 03:49:52;;;;;;;0.77;0.47;;;;;;;-20.54;51.27;99794.25;5048667;28;20044;-66
2024/01/03 03:52:18;;;;;;;2.57;0.57;;;;;;;-20.63;50.79;99760.31;5034741;28;20040;-65
2024/01/03 03:54:44;;;;;;;1.17;0.90;;;;;;;-20.67;50.25;99787.03;5048801;28;20067;-65
2024/01/03 03:57:10;;;;;;;0.77;0.50;;;;;;;-20.76;50.76;99789.38;5067800;28;20040;-65
2024/01/03 03:59:37;;;;;;;2.37;1.03;;;;;;;-20.74;51.57;99809.34;5064270;28;20037;-64
2024/01/03 04:02:03;;;;;;;3.60;0.77;;;;;;;-20.79;51.22;99796.44;5048239;28;20056;-65
2024/01/03 04:04:29;;;;;;;8.27;1.33;;;;;;;-20.72;51.23;99801.38;5030476;28;20117;-65
2024/01/03 04:06:56;;;;;;;1.90;0.57;;;;;;;-20.87;50.95;99768.38;5043011;28;20560;-66
2024/01/03 04:09:24;;;;;;;1.90;1.00;;;;;;;-20.68;51.32;99795.16;5071606;28;20032;-64
2024/01/03 04:11:50;;;;;;;1.30;1.00;;;;;;;-20.56;51.63;99805.56;5088425;28;20438;-64
2024/01/03 04:14:16;;;;;;;3.83;1.60;;;;;;;-20.53;51.71;99798.47;5071305;28;20067;-66
2024/01/03 04:16:42;;;;;;;2.30;0.67;;;;;;;-20.62;51.18;99774.44;5067560;28;20128;-65
2024/01/03 04:19:08;;;;;;;3.00;1.27;;;;;;;-20.76;51.75;99752.25;5068339;28;20489;-66
2024/01/03 04:21:34;;;;;;;1.13;0.90;;;;;;;-20.53;50.65;99794.44;5069297;28;20032;-66
2024/01/03 04:24:00;;;;;;;2.53;1.43;;;;;;;-20.48;50.64;99799.91;5068599;28;21489;-67
2024/01/03 04:26:35;;;;;;;2.43;1.57;;;;;;;-20.44;51.49;99793.69;5038974;28;20161;-65
2024/01/03 04:29:02;;;;;;;1.23;0.83;;;;;;;-20.33;51.68;99806.56;5072403;28;20092;-66
2024/01/03 04:31:28;;;;;;;0.77;0.77;;;;;;;-20.48;50.89;99787.50;5068084;28;20448;-65
2024/01/03 04:33:54;;;;;;;1.03;0.77;;;;;;;-20.50;50.85;99769.13;5066751;28;20032;-67
2024/01/03 04:36:20;;;;;;;1.30;0.77;;;;;;;-20.44;51.02;99786.25;5065980;28;20032;-66
2024/01/03 04:38:46;;;;;;;0.17;0.17;;;;;;;-20.59;50.13;99797.78;5068027;28;20497;-66
2024/01/03 04:41:12;;;;;;;3.17;1.40;;;;;;;-20.78;50.29;99831.28;5067996;28;20070;-65
2024/01/03 04:43:38;;;;;;;4.00;1.13;;;;;;;-20.71;50.93;99830.34;5067765;28;20064;-66
2024/01/03 04:46:04;;;;;;;5.03;1.33;;;;;;;-20.85;51.25;99806.53;5069708;28;20497;-67
2024/01/03 04:48:30;;;;;;;3.03;1.20;;;;;;;-20.63;51.38;99836.16;5054832;28;20035;-67
2024/01/03 04:50:56;;;;;;;1.37;1.17;;;;;;;-20.64;50.78;99817.06;5055514;28;21842;-66
2024/01/03 04:53:22;;;;;;;2.90;0.83;;;;;;;-20.52;50.66;99827.47;5085944;28;20032;-66
2024/01/03 04:55:48;;;;;;;5.03;1.13;;;;;;;-20.55;51.09;99830.50;5070314;28;20147;-66
2024/01/03 04:58:15;;;;;;;1.40;1.00;;;;;;;-20.79;50.93;99782.50;5071367;28;20100;-66
2024/01/03 05:00:41;;;;;;;1.73;0.67;;;;;;;-20.77;51.12;99797.50;5054032;28;20077;-65
2024/01/03 05:03:07;;;;;;;3.37;0.90;;;;;;;-20.63;50.63;99818.84;5067563;28;20047;-66
2024/01/03 05:05:34;;;;;;;2.63;1.00;;;;;;;-20.58;51.75;99832.63;5065544;28;20047;-66
2024/01/03 05:08:00;;;;;;;5.17;1.30;;;;;;;-20.65;50.82;99815.31;5050454;28;20129;-65
2024/01/03 05:10:26;;;;;;;2.77;0.90;;;;;;;-20.52;51.37;99838.28;5063011;28;20285;-66
2024/01/03 05:12:52;;;;;;;4.13;1.37;;;;;;;-20.71;50.56;99812.13;5062919;28;20464;-65
2024/01/03 05:15:18;;;;;;;1.20;0.70;;;;;;;-20.92;49.88;99797.53;5050090;28;20036;-65
2024/01/03 05:17:46;;;;;;;0.63;0.40;;;;;;;-20.64;50.36;99841.81;5050588;28;20033;-64
2024/01/03 05:20:12;;;;;;;1.10;0.60;;;;;;;-20.65;50.16;99845.00;5050610;28;20068;-65
2024/01/03 05:22:38;;;;;;;3.90;1.37;;;;;;;-20.81;50.60;99812.72;5033202;28;20037;-65
2024/01/03 05:25:06;;;;;;;1.20;0.80;;;;;;;-20.76;50.92;99826.50;5064748;28;20033;-65
2024/01/03 05:27:32;;;;;;;2.17;0.73;;;;;;;-20.94;51.22;99794.00;5064897;28;20070;-66
2024/01/03 05:29:58;;;;;;;0.97;0.70;;;;;;;-20.58;51.52;99826.78;5063424;28;20068;-66
2024/01/03 05:32:24;;;;;;;1.37;0.80;;;;;;;-20.52;50.37;99827.47;5062797;28;20463;-65
2024/01/03 05:34:50;;;;;;;4.47;2.07;;;;;;;-21.00;50.94;99775.97;5049589;28;20502;-65
2024/01/03 05:37:16;;;;;;;2.43;0.70;;;;;;;-20.71;50.92;99805.59;5050585;28;20488;-64
2024/01/03 05:39:42;;;;;;;1.57;0.90;;;;;;;-20.74;50.49;99810.19;5079126;28;20123;-65
2024/01/03 05:42:09;;;;;;;2.27;1.00;;;;;;;-20.67;50.26;99826.63;5061132;28;20123;-65
2024/01/03 05:44:35;;;;;;;1.80;0.80;;;;;;;-20.64;50.50;99832.81;5062142;28;20054;-65
2024/01/03 05:47:01;;;;;;;1.87;0.97;;;;;;;-20.85;51.04;99798.25;5062315;28;20102;-64
2024/01/03 05:49:27;;;;;;;1.97;1.30;;;;;;;-21.12;49.72;99769.66;5045054;28;20104;-64
2024/01/03 05:51:53;;;;;;;0.63;0.50;;;;;;;-20.94;50.72;99784.13;5064153;28;20041;-64
2024/01/03 05:54:20;;;;;;;0.60;0.60;;;;;;;-20.83;50.90;99791.84;5029358;28;20033;-64
2024/01/03 05:56:46;;;;;;;5.27;0.87;;;;;;;-21.11;51.26;99737.66;5044630;28;20044;-65
2024/01/03 05:59:12;;;;;;;0.90;0.50;;;;;;;-21.00;49.69;99766.09;5045719;28;20044;-64
2024/01/03 06:01:38;;;;;;;1.47;0.97;;;;;;;-20.57;51.17;99833.50;5040642;28;20040;-65
2024/01/03 06:04:04;;;;;;;1.80;0.70;;;;;;;-20.44;50.67;99828.34;5045824;28;20072;-64
2024/01/03 06:06:30;;;;;;;1.03;0.90;;;;;;;-20.65;49.97;99786.50;5062430;28;20044;-64
2024/01/03 06:08:56;;;;;;;2.50;1.63;;;;;;;-20.27;51.25;99832.72;5045395;28;20037;-63
2024/01/03 06:11:22;;;;;;;3.60;1.00;;;;;;;-20.68;51.48;99761.41;5033327;28;20473;-65
2024/01/03 06:13:51;;;;;;;1.67;0.47;;;;;;;-20.30;50.60;99811.00;5042668;28;20044;-66
2024/01/03 06:16:19;;;;;;;0.73;0.70;;;;;;;-20.22;50.34;99821.75;5043262;28;20047;-65
2024/01/03 06:18:45;;;;;;;0.33;0.33;;;;;;;-20.35;49.97;99809.59;5054349;28;20072;-66
2024/01/03 06:21:12;;;;;;;1.63;0.83;;;;;;;-20.22;50.46;99815.19;5044915;28;20047;-67
2024/01/03 06:23:39;;;;;;;1.63;0.50;;;;;;;-20.36;50.40;99778.97;5050369;28;20139;-65
2024/01/03 06:26:06;;;;;;;1.40;0.73;;;;;;;-20.11;49.49;99803.13;5062555;28;20040;-65
2024/01/03 06:28:32;;;;;;;1.93;0.70;;;;;;;-20.65;50.06;99722.16;5032738;28;20078;-65
2024/01/03 06:30:58;;;;;;;0.60;0.60;;;;;;;-20.35;49.66;99748.53;5049444;28;20606;-66
2024/01/03 06:33:24;;;;;;;3.17;1.40;;;;;;;-19.98;50.97;99797.94;5046854;28;20067;-64
2024/01/03 06:35:50;;;;;;;2.07;0.83;;;;;;;-19.64;50.63;99838.78;5032604;28;20060;-64
2024/01/03 06:38:16;;;;;;;2.10;1.13;;;;;;;-20.16;50.26;99736.63;5065026;28;20074;-66
2024/01/03 06:40:42;;;;;;;7.67;1.63;;;;;;;-19.58;50.43;99800.66;5044735;28;20032;-65
2024/01/03 06:43:08;;;;;;;1.30;1.00;;;;;;;-19.54;49.94;99811.81;5062098;28;20105;-64
2024/01/03 06:45:34;;;;;;;1.67;0.80;;;;;;;-19.40;50.45;99843.06;5062223;28;20060;-64
2024/01/03 06:48:01;;;;;;;1.33;1.07;;;;;;;-19.31;50.67;99845.69;5060817;28;20040;-66
2024/01/03 06:50:27;;;;;;;2.07;0.87;;;;;;;-19.18;49.85;99843.81;5045270;28;20064;-65
2024/01/03 06:52:53;;;;;;;1.33;0.83;;;;;;;-19.21;49.62;99816.19;5042031;28;20079;-65
2024/01/03 06:55:20;;;;;;;4.77;1.00;;;;;;;-19.42;49.57;99775.06;5044820;28;20143;-64
2024/01/03 06:57:48;;;;;;;2.10;1.10;;;;;;;-19.05;49.73;99821.22;5045664;28;20047;-65
2024/01/03 07:00:18;;;;;;;4.80;1.67;;;;;;;-19.09;50.07;99796.78;5044036;28;20399;-65
2024/01/03 07:02:45;;;;;;;2.70;1.27;;;;;;;-19.14;49.65;99791.34;5028383;28;20041;-65
2024/01/03 07:05:11;;;;;;;1.63;1.07;;;;;;;-19.12;49.11;99821.25;5044555;28;20044;-67
2024/01/03 07:07:40;;;;;;;4.13;1.20;;;;;;;-19.19;49.87;99803.97;5031451;28;20125;-65
2024/01/03 07:10:08;;;;;;;1.83;1.17;;;;;;;-19.05;49.22;99821.22;5030088;28;20044;-65
2024/01/03 07:12:38;;;;;;;3.57;2.60;;;;;;;-18.93;49.25;99816.66;5061444;28;20499;-65
2024/01/03 07:15:17;;;;;;;3.23;1.83;;;;;;;-18.93;49.71;99781.91;5061110;28;20068;-65
2024/01/03 07:17:46;;;;;;;2.13;1.67;;;;;;;-18.89;49.42;99783.09;5027375;28;20123;-65
2024/01/03 07:20:15;;;;;;;3.37;1.30;;;;;;;-18.54;49.79;99805.81;5046481;28;20071;-65
2024/01/03 07:22:41;;;;;;;4.17;1.50;;;;;;;-18.06;48.81;99830.66;5032653;28;20043;-65
2024/01/03 07:25:07;;;;;;;1.17;0.87;;;;;;;-18.83;48.85;99675.41;5060506;28;20041;-65
2024/01/03 07:27:33;;;;;;;3.10;1.37;;;;;;;-17.79;49.76;99827.63;5062429;28;20372;-65
2024/01/03 07:29:59;;;;;;;4.07;1.00;;;;;;;-17.46;49.05;99833.41;5060278;28;20082;-64
2024/01/03 07:32:28;;;;;;;3.67;1.40;;;;;;;-17.09;49.11;99806.38;5044155;28;20450;-65
2024/01/03 07:34:54;;;;;;;5.63;1.93;;;;;;;-17.12;49.39;99724.81;5031773;28;20462;-66
2024/01/03 07:37:20;;;;;;;5.90;1.87;;;;;;;-16.68;49.12;99738.22;5062043;28;20043;-65
2024/01/03 07:39:46;;;;;;;5.57;1.70;;;;;;;-16.01;48.80;99814.34;5043237;28;20064;-65
2024/01/03 07:42:12;;;;;;;5.27;1.80;;;;;;;-16.27;48.65;99722.13;5062077;28;20029;-65
2024/01/03 07:44:41;;;;;;;3.43;1.80;;;;;;;-15.87;48.37;99749.94;5044342;28;20094;-65
2024/01/03 07:47:08;;;;;;;3.20;1.87;;;;;;;-15.28;48.06;99771.19;5060992;28;20033;-66
2024/01/03 07:49:39;;;;;;;4.03;1.80;;;;;;;-15.43;46.76;99747.31;5044823;28;20494;-66
2024/01/03 07:52:11;;;;;;;5.97;2.67;;;;;;;-15.42;47.85;99711.63;5044558;28;20087;-65
2024/01/03 07:54:39;;;;;;;6.40;2.30;;;;;;;-14.91;47.47;99799.59;5019745;28;20067;-65
2024/01/03 07:57:06;;;;;;;4.23;2.07;;;;;;;-14.64;48.45;99799.41;5063617;28;20406;-65
2024/01/03 07:59:32;;;;;;;4.17;2.10;;;;;;;-14.09;48.30;99800.97;5030290;28;20123;-65
2024/01/03 08:01:58;;;;;;;7.27;2.17;;;;;;;-13.66;47.93;99804.75;5027113;28;20573;-65
2024/01/03 08:04:25;;;;;;;6.77;2.40;;;;;;;-14.10;47.01;99729.19;5032023;28;20041;-63
2024/01/03 08:06:52;;;;;;;4.97;2.20;;;;;;;-13.82;47.03;99796.66;5066912;28;20094;-63
2024/01/03 08:09:18;;;;;;;7.13;2.40;;;;;;;-14.19;46.62;99773.38;5051787;28;20506;-65
2024/01/03 08:11:44;;;;;;;5.90;2.50;;;;;;;-14.51;47.00;99741.41;5025648;28;20387;-65
2024/01/03 08:14:14;;;;;;;7.73;3.07;;;;;;;-14.51;46.50;99798.91;5034779;28;20505;-64
2024/01/03 08:16:43;;;;;;;7.43;3.17;;;;;;;-14.75;45.99;99796.84;5046023;28;20131;-64
2024/01/03 08:19:09;;;;;;;5.07;2.20;;;;;;;-14.72;47.12;99774.63;5013415;28;20044;-66
2024/01/03 08:21:35;;;;;;;7.40;3.23;;;;;;;-14.49;47.36;99779.94;5032530;28;20058;-65
2024/01/03 08:24:04;;;;;;;11.47;2.67;;;;;;;-14.56;46.90;99759.38;5018882;28;20040;-65
2024/01/03 08:26:31;;;;;;;5.57;2.37;;;;;;;-14.55;46.92;99772.72;5034740;28;20039;-65
2024/01/03 08:28:59;;;;;;;6.30;3.03;;;;;;;-14.87;46.80;99720.78;5034407;28;20048;-66
2024/01/03 08:31:25;;;;;;;8.00;3.43;;;;;;;-14.40;46.77;99783.22;5029856;28;20033;-66
2024/01/03 08:33:57;;;;;;;2.97;1.97;;;;;;;-14.51;45.79;99763.91;5028754;28;20068;-66
2024/01/03 08:36:41;;;;;;;4.63;2.40;;;;;;;-14.13;46.41;99788.94;5046457;28;20051;-66
2024/01/03 08:39:08;;;;;;;5.93;2.60;;;;;;;-14.49;46.61;99707.44;5063591;28;20033;-65
2024/01/03 08:41:35;;;;;;;4.33;1.70;;;;;;;-13.99;46.78;99755.13;5042729;28;20037;-66
2024/01/03 08:44:03;;;;;;;8.70;3.77;;;;;;;-14.17;46.26;99706.84;5018005;28;20082;-66
2024/01/03 08:46:38;;;;;;;5.65;2.83;;;;;;;-13.88;45.35;99776.09;5034064;28;20491;-63
2024/01/03 08:49:04;;;;;;;;;;;;;;;-13.61;45.86;99791.75;5064408;28;20072;-67
2024/01/03 08:51:30;;;;;;;7.00;2.47;;;;;;;-13.60;46.24;99748.44;5051250;28;19960;-63
2024/01/03 08:53:56;;;;;;;5.00;2.30;;;;;;;-13.37;46.03;99746.25;5017123;28;20078;-65
2024/01/03 08:56:23;;;;;;;6.00;2.43;;;;;;;-13.09;46.17;99766.09;5065403;28;20101;-65
2024/01/03 08:58:49;;;;;;;4.23;2.07;;;;;;;-13.18;45.45;99733.63;5014614;28;20052;-63
2024/01/03 09:01:17;;;;;;;6.80;2.27;;;;;;;-12.79;44.80;99779.44;5013668;28;20041;-65
2024/01/03 09:03:44;;;;;;;8.40;2.97;;;;;;;-13.08;44.76;99752.81;5046985;28;20052;-64
2024/01/03 09:06:14;;;;;;;5.33;2.13;;;;;;;-12.63;45.39;99766.56;5051660;28;20094;-65
2024/01/03 09:08:43;;;;;;;5.80;2.30;;;;;;;-12.57;44.86;99741.09;5053525;28;20043;-68
2024/01/03 09:11:11;;;;;;;4.97;2.40;;;;;;;-13.17;43.79;99674.41;5067137;28;20062;-64
2024/01/03 09:13:38;;;;;;;4.13;2.03;;;;;;;-13.38;43.85;99691.91;5083637;28;20075;-66
2024/01/03 09:16:09;;;;;;;5.60;2.20;;;;;;;-13.02;44.45;99718.25;5084194;28;20047;-65
2024/01/03 09:18:38;;;;;;;9.05;2.80;;;;;;;-12.91;44.43;99710.75;5065371;28;20036;-67
2024/01/03 09:21:05;;;;;;;7.90;2.47;;;;;;;-12.72;44.56;99726.56;5068531;28;20044;-68
2024/01/03 09:23:31;;;;;;;8.17;3.03;;;;;;;-12.76;44.38;99703.59;5070352;28;20027;-68
2024/01/03 09:25:59;;;;;;;9.10;3.07;;;;;;;-12.41;44.27;99753.25;5070508;28;20584;-68
2024/01/03 09:28:27;;;;;;;8.33;3.47;;;;;;;-13.06;43.53;99667.78;5053147;28;20040;-65
2024/01/03 09:30:53;;;;;;;8.10;3.10;;;;;;;-12.44;44.28;99716.25;5082757;28;20130;-64
2024/01/03 09:33:20;;;;;;;9.40;2.73;;;;;;;-12.38;42.78;99708.38;5085092;28;20486;-65
2024/01/03 09:35:46;;;;;;;4.43;2.73;;;;;;;-12.46;43.99;99695.19;5082467;28;20402;-69
2024/01/03 09:38:14;;;;;;;10.60;3.13;;;;;;;-11.97;43.33;99755.94;5083579;28;20040;-69
2024/01/03 09:40:41;;;;;;;6.43;2.43;;;;;;;-12.37;43.67;99679.13;5065623;28;20805;-68
2024/01/03 09:43:10;;;;;;;9.07;3.20;;;;;;;-12.04;42.82;99736.13;5069401;28;20033;-67
2024/01/03 09:45:37;;;;;;;8.53;3.43;;;;;;;-12.37;43.38;99721.75;5036557;28;20566;-65
2024/01/03 09:48:04;;;;;;;11.53;3.07;;;;;;;-12.37;43.05;99684.16;5051078;28;20040;-66
2024/01/03 09:50:31;;;;;;;9.67;2.97;;;;;;;-11.85;42.83;99722.50;5067689;28;20072;-67
2024/01/03 09:53:00;;;;;;;6.07;2.63;;;;;;;-11.91;42.70;99696.94;5033526;28;21480;-66
2024/01/03 09:55:29;;;;;;;5.70;2.43;;;;;;;-11.60;42.87;99736.97;5051700;28;20047;-65
2024/01/03 09:57:56;;;;;;;10.33;3.60;;;;;;;-12.47;42.34;99673.38;5068380;28;20444;-67
2024/01/03 10:00:29;;;;;;;6.80;2.93;;;;;;;-12.43;42.30;99694.56;5053329;28;20273;-67
2024/01/03 10:03:04;;;;;;;6.30;2.90;;;;;;;-12.43;42.12;99707.97;5053991;28;20108;-67
2024/01/03 10:05:35;;;;;;;8.27;3.70;;;;;;;-13.03;41.99;99643.84;5065078;28;20615;-67
2024/01/03 10:08:18;;;;;;;7.67;3.10;;;;;;;-12.49;42.14;99734.19;5068764;28;20501;-67
2024/01/03 10:10:48;;;;;;;6.30;2.83;;;;;;;-12.86;42.41;99649.34;5047190;28;20083;-68
2024/01/03 10:13:27;;;;;;;5.43;2.90;;;;;;;-12.57;41.92;99721.91;5016793;28;20037;-68
2024/01/03 10:15:53;;;;;;;6.20;2.87;;;;;;;-12.96;41.92;99710.34;5062759;28;20055;-67
2024/01/03 10:18:21;;;;;;;7.93;3.40;;;;;;;-12.98;41.93;99706.84;5046449;28;20090;-68
2024/01/03 10:20:47;;;;;;;9.03;3.40;;;;;;;-13.04;42.25;99712.22;5048122;28;20036;-68
2024/01/03 10:23:21;;;;;;;7.60;2.77;;;;;;;-13.14;41.46;99726.38;5044440;28;20037;-67
2024/01/03 10:25:47;;;;;;;8.73;3.23;;;;;;;-13.36;41.57;99707.03;5043607;28;20037;-68
2024/01/03 10:28:17;;;;;;;6.33;3.47;;;;;;;-14.12;41.56;99618.97;5063628;28;20036;-69
2024/01/03 10:30:54;;;;;;;9.10;3.33;;;;;;;-13.95;41.98;99642.94;5025465;28;20044;-68
2024/01/03 10:33:21;;;;;;;10.27;3.50;;;;;;;-13.72;41.61;99681.56;5061900;28;20503;-67
2024/01/03 10:35:47;;;;;;;7.87;2.53;;;;;;;-13.66;41.82;99689.59;5045886;28;20072;-67
2024/01/03 10:38:15;;;;;;;8.70;3.30;;;;;;;-13.68;41.65;99710.25;5045710;28;20056;-68
2024/01/03 10:40:41;;;;;;;6.43;2.63;;;;;;;-13.53;41.73;99723.16;5048168;28;20067;-67
2024/01/03 10:43:11;;;;;;;8.77;3.20;;;;;;;-14.00;42.30;99646.66;5033226;28;20048;-67
2024/01/03 10:45:37;;;;;;;7.67;3.10;;;;;;;-13.80;42.21;99707.56;5047383;28;20045;-68
2024/01/03 10:48:04;;;;;;;5.73;2.83;;;;;;;-13.90;42.04;99695.88;5046179;28;20123;-67
2024/01/03 10:50:34;;;;;;;9.50;2.97;;;;;;;-13.90;41.77;99700.00;5062883;28;20090;-68
2024/01/03 10:53:08;;;;;;;8.27;2.90;;;;;;;-13.84;42.30;99733.06;5049042;28;20079;-66
2024/01/03 10:55:37;;;;;;;5.37;2.83;;;;;;;-13.81;42.05;99710.81;5062445;28;20067;-66
2024/01/03 10:58:20;;;;;;;10.63;3.67;;;;;;;-13.85;42.17;99709.66;5061709;28;20155;-67
2024/01/03 11:01:07;;;;;;;7.03;3.27;;;;;;;-13.98;41.64;99717.72;5016333;28;20036;-67
2024/01/03 11:03:50;;;;;;;8.20;3.50;;;;;;;-14.61;41.82;99618.09;5016539;28;20444;-65
2024/01/03 11:06:35;;;;;;;5.23;2.50;;;;;;;-14.14;41.78;99713.03;5032026;28;20063;-66
2024/01/03 11:09:02;;;;;;;12.00;3.20;;;;;;;-14.38;41.81;99664.22;5062170;28;20087;-67
2024/01/03 11:11:32;;;;;;;7.40;3.13;;;;;;;-14.34;41.27;99677.91;5060235;28;20055;-67
2024/01/03 11:14:21;;;;;;;12.57;3.17;;;;;;;-14.51;42.38;99672.28;5044047;28;20179;-66
2024/01/03 11:16:48;;;;;;;4.97;2.43;;;;;;;-14.16;42.35;99706.13;5029495;28;20040;-67
2024/01/03 11:19:14;;;;;;;5.93;2.63;;;;;;;-14.40;41.63;99686.63;5062481;28;20494;-67
2024/01/03 11:21:42;;;;;;;6.67;2.50;;;;;;;-14.70;41.62;99685.69;5063801;28;20038;-66
2024/01/03 11:24:20;;;;;;;4.23;2.57;;;;;;;-14.50;41.61;99711.53;5044807;28;20108;-67
2024/01/03 11:27:00;;;;;;;5.90;3.07;;;;;;;-14.41;42.11;99704.84;5044110;28;20518;-66